Time;durP1;ratioP1;P1;durP2;ratioP2;P2;SDS_P1;SDS_P2;PMS_P1;PMS_P2;Temp;Humidity;BMP_temperature;BMP_pressure;BME280_temperature;BME280_humidity;BME280_pressure;Samples;Min_cycle;Max_cycle;Signal;HPM_P1;HPM_P2
2022/02/28 12:33:06;;;;;;;9.60;6.95;;;;;;;;;;6165116;23;20091;-92
2022/02/28 12:35:40;;;;;;;6.40;4.85;;;;;;;;;;6187897;23;20005;-93
2022/02/28 12:38:06;;;;;;;7.00;5.10;;;;;;;;;;6186698;23;20095;-92
2022/02/28 12:40:32;;;;;;;5.78;4.50;;;;;;;;;;6186502;23;19997;-93
2022/02/28 12:42:57;;;;;;;6.32;4.70;;;;;;;;;;6186497;23;20011;-92
2022/02/28 12:45:26;;;;;;;6.22;4.80;;;;;;;;;;6186573;23;20332;-93
2022/02/28 12:47:52;;;;;;;8.57;5.47;;;;;;;;;;6186529;23;20016;-93
2022/02/28 12:50:18;;;;;;;6.05;5.40;;;;;;;;;;6186319;23;19998;-93
2022/02/28 17:40:16;;;;;;;9.63;7.38;;;;;;;;;;6144659;23;20028;-94
2022/02/28 17:42:42;;;;;;;8.65;7.20;;;;;;;;;;6141058;23;20013;-94
2022/02/28 17:45:08;;;;;;;11.52;7.80;;;;;;;;;;6134157;23;20001;-94
2022/02/28 17:47:34;;;;;;;10.85;7.53;;;;;;;;;;6159649;23;20005;-94
2022/02/28 17:49:59;;;;;;;10.38;7.30;;;;;;;;;;6171584;23;20005;-94
2022/02/28 17:52:25;;;;;;;9.80;7.97;;;;;;;;;;6150297;23;20006;-93
2022/02/28 17:54:51;;;;;;;14.00;9.02;;;;;;;;;;6147088;23;20005;-93
2022/02/28 17:57:16;;;;;;;13.07;8.60;;;;;;;;;;6161882;23;20029;-94
2022/02/28 17:59:42;;;;;;;9.63;7.68;;;;;;;;;;6159236;23;20092;-94
2022/02/28 18:02:10;;;;;;;9.52;8.15;;;;;;;;;;6161207;23;20092;-95
2022/02/28 18:04:35;;;;;;;10.18;8.02;;;;;;;;;;6136416;23;20013;-93
2022/02/28 18:07:02;;;;;;;10.52;8.27;;;;;;;;;;6161309;23;20005;-95
2022/02/28 18:09:28;;;;;;;9.25;8.07;;;;;;;;;;6133343;23;20092;-92
2022/02/28 18:11:53;;;;;;;12.48;8.15;;;;;;;;;;6164850;23;20002;-94
2022/02/28 18:14:19;;;;;;;10.60;8.02;;;;;;;;;;6147246;23;20009;-94
2022/02/28 18:16:45;;;;;;;9.20;7.55;;;;;;;;;;6171869;23;20016;-95
2022/02/28 18:19:12;;;;;;;8.77;7.82;;;;;;;;;;6154604;23;20029;-94
2022/02/28 18:21:38;;;;;;;11.60;7.97;;;;;;;;;;6174236;23;20073;-91
2022/02/28 18:24:04;;;;;;;9.95;7.93;;;;;;;;;;6148437;23;20012;-92
2022/02/28 18:26:30;;;;;;;15.38;8.43;;;;;;;;;;6144015;23;20088;-92
2022/02/28 18:28:56;;;;;;;10.50;8.05;;;;;;;;;;6166436;23;20009;-91
2022/02/28 18:31:22;;;;;;;10.73;7.50;;;;;;;;;;6139064;23;20012;-90
2022/02/28 18:33:48;;;;;;;9.52;8.45;;;;;;;;;;6158842;23;20029;-91
2022/02/28 18:36:13;;;;;;;11.48;7.75;;;;;;;;;;6135248;23;20055;-90
2022/02/28 18:38:39;;;;;;;10.45;8.38;;;;;;;;;;6161499;23;20326;-90
2022/02/28 18:41:04;;;;;;;11.48;8.40;;;;;;;;;;6161933;23;20045;-91
2022/02/28 18:43:31;;;;;;;12.75;9.07;;;;;;;;;;6162128;23;20002;-91
2022/02/28 18:45:57;;;;;;;11.70;8.73;;;;;;;;;;6164722;23;19998;-90
2022/02/28 18:48:26;;;;;;;11.55;8.68;;;;;;;;;;6142822;23;20020;-91
2022/02/28 18:50:52;;;;;;;14.25;8.90;;;;;;;;;;6141742;23;20010;-91
2022/02/28 18:53:19;;;;;;;13.68;9.57;;;;;;;;;;6142822;23;20026;-91
2022/02/28 18:55:47;;;;;;;11.68;8.80;;;;;;;;;;6143955;23;20066;-91
2022/02/28 18:58:12;;;;;;;12.30;8.55;;;;;;;;;;6169555;23;20001;-91
2022/02/28 19:00:38;;;;;;;13.23;9.55;;;;;;;;;;6168332;23;20092;-91
2022/02/28 19:03:03;;;;;;;14.13;9.95;;;;;;;;;;6145011;23;20006;-93
2022/02/28 19:05:29;;;;;;;13.55;10.07;;;;;;;;;;6170229;23;20073;-93
2022/02/28 19:07:56;;;;;;;15.02;10.30;;;;;;;;;;6147706;23;20040;-92
2022/02/28 19:10:23;;;;;;;12.88;9.68;;;;;;;;;;6173285;23;20014;-91
2022/02/28 19:12:50;;;;;;;17.08;11.75;;;;;;;;;;6149207;23;20005;-90
2022/02/28 19:15:16;;;;;;;12.95;9.60;;;;;;;;;;6176689;23;20005;-91
2022/02/28 19:17:42;;;;;;;14.05;9.20;;;;;;;;;;6151363;23;20006;-92
2022/02/28 19:20:08;;;;;;;11.70;8.98;;;;;;;;;;6153589;23;20017;-92
2022/02/28 19:22:34;;;;;;;13.18;9.70;;;;;;;;;;6152734;23;20443;-91
2022/02/28 19:25:00;;;;;;;12.60;9.45;;;;;;;;;;6172015;23;20005;-94
2022/02/28 19:27:25;;;;;;;15.68;10.18;;;;;;;;;;6160111;23;20065;-93
2022/02/28 19:29:52;;;;;;;14.15;10.02;;;;;;;;;;6158575;23;20081;-93
2022/02/28 19:32:18;;;;;;;18.95;10.75;;;;;;;;;;6135479;23;20050;-91
2022/02/28 19:34:43;;;;;;;13.20;10.15;;;;;;;;;;6134283;23;20002;-93
2022/02/28 19:37:09;;;;;;;12.50;10.07;;;;;;;;;;6158013;23;20041;-92
2022/02/28 19:39:34;;;;;;;12.35;9.02;;;;;;;;;;6159400;23;20006;-93
2022/02/28 19:42:00;;;;;;;14.70;9.63;;;;;;;;;;6158799;23;20069;-92
2022/02/28 19:44:27;;;;;;;13.43;10.95;;;;;;;;;;6133542;23;20451;-93
2022/02/28 19:46:53;;;;;;;14.18;9.93;;;;;;;;;;6133756;23;20006;-91
2022/02/28 19:49:21;;;;;;;11.63;9.13;;;;;;;;;;6158515;23;20084;-92
2022/02/28 19:51:48;;;;;;;13.27;9.65;;;;;;;;;;6133980;23;20373;-91
2022/02/28 19:54:14;;;;;;;12.98;10.05;;;;;;;;;;6158393;23;20337;-92
2022/02/28 19:56:40;;;;;;;16.33;10.88;;;;;;;;;;6137760;23;20014;-91
2022/02/28 19:59:06;;;;;;;12.27;9.75;;;;;;;;;;6141985;23;20005;-92
2022/02/28 20:01:32;;;;;;;11.80;9.32;;;;;;;;;;6158416;23;20002;-91
2022/02/28 20:03:57;;;;;;;14.13;10.70;;;;;;;;;;6133528;23;20010;-92
2022/02/28 20:06:24;;;;;;;17.13;10.85;;;;;;;;;;6160310;23;20033;-93
2022/02/28 20:08:50;;;;;;;11.93;9.75;;;;;;;;;;6134893;23;20005;-91
2022/02/28 20:11:15;;;;;;;13.63;9.93;;;;;;;;;;6134917;23;20002;-90
2022/02/28 20:13:41;;;;;;;13.38;10.00;;;;;;;;;;6157964;23;20019;-91
2022/02/28 20:16:08;;;;;;;16.77;10.23;;;;;;;;;;6161430;23;20432;-90
2022/02/28 20:18:33;;;;;;;27.08;15.73;;;;;;;;;;6163338;23;20009;-89
2022/02/28 20:20:59;;;;;;;24.20;16.08;;;;;;;;;;6162576;23;20040;-89
2022/02/28 20:23:26;;;;;;;22.50;13.00;;;;;;;;;;6169420;23;20432;-91
2022/02/28 20:25:52;;;;;;;20.75;13.43;;;;;;;;;;6147904;23;20081;-89
2022/02/28 20:28:18;;;;;;;20.92;14.30;;;;;;;;;;6144325;23;20104;-91
2022/02/28 20:30:45;;;;;;;20.65;13.60;;;;;;;;;;6144346;23;20005;-90
2022/02/28 20:33:11;;;;;;;15.75;11.65;;;;;;;;;;6147656;23;20033;-90
2022/02/28 20:35:37;;;;;;;16.38;12.35;;;;;;;;;;6173252;23;20001;-90
2022/02/28 20:38:03;;;;;;;20.33;13.20;;;;;;;;;;6169914;23;20014;-90
2022/02/28 20:40:28;;;;;;;18.25;13.95;;;;;;;;;;6167357;23;20018;-91
2022/02/28 20:42:54;;;;;;;19.75;13.65;;;;;;;;;;6160352;23;20014;-92
2022/02/28 20:45:19;;;;;;;22.02;15.10;;;;;;;;;;6170713;23;20009;-90
2022/02/28 20:47:45;;;;;;;22.02;14.68;;;;;;;;;;6171810;23;20010;-89
2022/02/28 20:50:13;;;;;;;21.13;14.52;;;;;;;;;;6171353;23;20006;-90
2022/02/28 20:52:38;;;;;;;20.48;13.77;;;;;;;;;;6143102;23;20010;-89
2022/02/28 20:55:04;;;;;;;20.95;13.48;;;;;;;;;;6168005;23;20008;-90
2022/02/28 20:57:29;;;;;;;22.55;13.93;;;;;;;;;;6166187;23;20013;-90
2022/02/28 20:59:55;;;;;;;23.63;15.57;;;;;;;;;;6167742;23;20006;-89
2022/02/28 21:02:21;;;;;;;20.33;13.23;;;;;;;;;;6141462;23;20092;-91
2022/02/28 21:04:47;;;;;;;20.20;13.88;;;;;;;;;;6164872;23;20440;-91
2022/02/28 21:07:12;;;;;;;22.67;14.23;;;;;;;;;;6141706;23;20001;-90
2022/02/28 21:09:38;;;;;;;24.48;15.32;;;;;;;;;;6161432;23;20377;-90
2022/02/28 21:12:04;;;;;;;21.00;14.73;;;;;;;;;;6158641;23;20560;-90
2022/02/28 21:14:29;;;;;;;21.85;13.93;;;;;;;;;;6134445;23;20005;-90
2022/02/28 21:16:54;;;;;;;22.42;13.95;;;;;;;;;;6158457;23;20330;-89
2022/02/28 21:19:21;;;;;;;22.05;13.43;;;;;;;;;;6158583;23;20002;-89
2022/02/28 21:21:46;;;;;;;25.08;13.80;;;;;;;;;;6159437;23;20062;-91
2022/02/28 21:24:12;;;;;;;20.75;13.75;;;;;;;;;;6135869;23;20001;-91
2022/02/28 21:26:37;;;;;;;19.17;12.55;;;;;;;;;;6135054;23;20012;-91
2022/02/28 21:29:03;;;;;;;19.50;13.30;;;;;;;;;;6159641;23;20059;-89
2022/02/28 21:31:29;;;;;;;19.10;12.63;;;;;;;;;;6159563;23;20028;-89
2022/02/28 21:33:59;;;;;;;17.58;12.52;;;;;;;;;;6135165;23;20477;-89
2022/02/28 21:36:26;;;;;;;16.23;11.80;;;;;;;;;;6157902;23;20009;-89
2022/02/28 21:38:51;;;;;;;18.23;12.15;;;;;;;;;;6158753;23;20009;-89
2022/02/28 21:41:17;;;;;;;18.88;12.73;;;;;;;;;;6153033;23;20338;-89
2022/02/28 21:43:42;;;;;;;18.13;13.63;;;;;;;;;;6128097;23;20033;-89
2022/02/28 21:46:08;;;;;;;19.95;13.43;;;;;;;;;;6128620;23;20056;-89
2022/02/28 21:48:33;;;;;;;18.40;13.07;;;;;;;;;;6152907;23;20029;-89
2022/02/28 21:50:59;;;;;;;19.13;13.50;;;;;;;;;;6128314;23;20417;-89
2022/02/28 21:53:24;;;;;;;19.80;13.65;;;;;;;;;;6153125;23;20009;-89
2022/02/28 21:55:50;;;;;;;18.23;12.60;;;;;;;;;;6128784;23;20028;-90
2022/02/28 21:58:15;;;;;;;19.73;12.65;;;;;;;;;;6129045;23;20044;-89
2022/02/28 22:00:41;;;;;;;19.10;13.30;;;;;;;;;;6129583;23;20030;-91
2022/02/28 22:03:06;;;;;;;19.38;13.07;;;;;;;;;;6132244;23;20010;-89
2022/02/28 22:05:32;;;;;;;18.13;12.32;;;;;;;;;;6128640;23;20006;-92
2022/02/28 22:07:58;;;;;;;17.73;13.30;;;;;;;;;;6127760;23;20041;-89
2022/02/28 22:10:24;;;;;;;20.27;13.82;;;;;;;;;;6127155;23;19998;-88
2022/02/28 22:12:49;;;;;;;19.33;12.82;;;;;;;;;;6151227;23;20073;-88
2022/02/28 22:15:16;;;;;;;17.73;12.00;;;;;;;;;;6127014;23;20002;-89
2022/02/28 22:17:41;;;;;;;20.75;13.23;;;;;;;;;;6126576;23;20049;-91
2022/02/28 22:20:08;;;;;;;21.17;13.18;;;;;;;;;;6126745;23;20448;-90
2022/02/28 22:22:34;;;;;;;21.00;13.82;;;;;;;;;;6125901;23;20321;-90
2022/02/28 22:25:00;;;;;;;23.38;13.82;;;;;;;;;;6125991;23;20092;-89
2022/02/28 22:27:25;;;;;;;17.17;11.75;;;;;;;;;;6126325;23;20010;-89
2022/02/28 22:29:51;;;;;;;18.20;11.57;;;;;;;;;;6126129;23;20382;-89
2022/02/28 22:32:17;;;;;;;18.25;11.73;;;;;;;;;;6126559;23;20006;-89
2022/02/28 22:34:45;;;;;;;19.35;11.90;;;;;;;;;;6125982;23;20013;-89
2022/02/28 22:37:27;;;;;;;17.73;11.05;;;;;;;;;;6150312;23;20012;-89
2022/02/28 22:39:55;;;;;;;17.25;10.63;;;;;;;;;;6126335;23;20057;-89
2022/02/28 22:42:22;;;;;;;15.95;9.82;;;;;;;;;;6130948;23;20006;-89
2022/02/28 22:44:48;;;;;;;14.60;9.65;;;;;;;;;;6130549;23;20005;-89
2022/02/28 22:47:13;;;;;;;17.33;9.77;;;;;;;;;;6130422;23;20021;-89
2022/02/28 22:49:39;;;;;;;14.65;9.10;;;;;;;;;;6155739;23;20033;-90
2022/02/28 22:52:05;;;;;;;13.77;8.60;;;;;;;;;;6131105;23;20005;-90
2022/02/28 22:54:31;;;;;;;16.10;8.27;;;;;;;;;;6155530;23;20005;-91
2022/02/28 22:56:56;;;;;;;16.45;8.80;;;;;;;;;;6130691;23;20021;-91
2022/02/28 22:59:22;;;;;;;14.48;8.32;;;;;;;;;;6155840;23;20033;-90
2022/02/28 23:01:47;;;;;;;15.15;8.15;;;;;;;;;;6155853;23;20051;-91
2022/02/28 23:04:15;;;;;;;15.82;8.65;;;;;;;;;;6156092;23;20005;-92
2022/02/28 23:06:45;;;;;;;14.40;8.13;;;;;;;;;;6158733;23;19997;-92
2022/02/28 23:20:31;;;;;;;10.77;7.47;;;;;;;;;;6159124;23;20028;-92
2022/02/28 23:22:57;;;;;;;14.18;7.75;;;;;;;;;;6133065;23;20033;-91
2022/02/28 23:25:24;;;;;;;12.63;8.20;;;;;;;;;;6133394;23;20421;-92
